Yeovilton

ADDS - METARS form results

Output produced by METARs form (1309 UTC 10 December 2019)
found at http://www.aviationweather.gov/metar/data/
 
METAR text: EGDY 101250Z 20025G37KT 2500 -RADZ BKN008 OVC016 12/11 Q1008 NOSIG RMK YLO1 YLO1
Conditions at: EGDY (YEOVILTON (NAVY), GB) observed 1250 UTC 10 December 2019
Temperature: 12.0°C (54°F)
Dewpoint: 11.0°C (52°F) [RH = 94%]
Pressure (altimeter): 29.76 inches Hg (1008.0 mb)
Winds: from the SSW (200 degrees) at 29 MPH (25 knots; 12.9 m/s)
gusting to 43 MPH (37 knots; 19.0 m/s)
Visibility: 1.55 miles (2.49 km)
Ceiling: 800 feet AGL
Clouds: broken clouds at 800 feet AGL
overcast cloud deck at 1600 feet AGL
Weather: -RA -DZ  (light rain, light drizzle)

METAR text: EGDY 101220Z 20021KT 3500 -RADZ BKN008 OVC016 11/10 Q1009 NOSIG RMK YLO1 YLO1
Conditions at: EGDY (YEOVILTON (NAVY), GB) observed 1220 UTC 10 December 2019
Temperature: 11.0°C (52°F)
Dewpoint: 10.0°C (50°F) [RH = 94%]
Pressure (altimeter): 29.79 inches Hg (1009.0 mb)
Winds: from the SSW (200 degrees) at 24 MPH (21 knots; 10.8 m/s)
Visibility: 2.17 miles (3.49 km)
Ceiling: 800 feet AGL
Clouds: broken clouds at 800 feet AGL
overcast cloud deck at 1600 feet AGL
Weather: -RA -DZ  (light rain, light drizzle)

Forecast for: EGDY (YEOVILTON (NAVY), GB)
Text: TAF EGDY 101109Z 1012/1021 20020G45KT 6000 RA BKN012
Forecast period: 1200 to 2100 UTC 10 December 2019
Forecast type: FROM: standard forecast or significant change
Winds: from the SSW (200 degrees) at 23 MPH (20 knots; 10.3 m/s)
gusting to 52 MPH (45 knots; 23.1 m/s)
Visibility: 4 miles (6 km)
Ceiling: 1200 feet AGL
Clouds: broken clouds at 1200 feet AGL
Weather: RA  (moderate rain)
Text: TEMPO 1012/1021 -RADZ BKN005
Forecast period: 1200 to 2100 UTC 10 December 2019
Forecast type: TEMPORARY: The following changes expected for less than half the time period
Visibility: missing
Ceiling: 500 feet AGL
Clouds: broken clouds at 500 feet AGL
Weather: -RA -DZ  (light rain, light drizzle)
Text: PROB40
Forecast period: 1200 to 2100 UTC 10 December 2019
Forecast type: TEMPORARY: The following changes expected for less than half the time period
Visibility: 1.24 miles (2.00 km)
Ceiling: 400 feet AGL
Clouds: broken clouds at 400 feet AGL
Weather: RA DZ  (moderate rain, moderate drizzle)


Bournemouth

ADDS - METARS form results

Output produced by METARs form (1309 UTC 10 December 2019)
found at http://www.aviationweather.gov/metar/data/
 
METAR text: EGHH 101250Z 21017G30KT 3000 -RA BR BKN007 11/10 Q1011
Conditions at: EGHH (BOURNEMOUTH AIRP, GB) observed 1250 UTC 10 December 2019
Temperature: 11.0°C (52°F)
Dewpoint: 10.0°C (50°F) [RH = 94%]
Pressure (altimeter): 29.85 inches Hg (1011.0 mb)
Winds: from the SSW (210 degrees) at 20 MPH (17 knots; 8.7 m/s)
gusting to 34 MPH (30 knots; 15.4 m/s)
Visibility: 1.86 miles (2.99 km)
Ceiling: 700 feet AGL
Clouds: broken clouds at 700 feet AGL
Weather: -RA BR  (light rain, mist)

METAR text: EGHH 101220Z 21015G26KT 2500 -RA BR BKN007 10/10 Q1012
Conditions at: EGHH (BOURNEMOUTH AIRP, GB) observed 1220 UTC 10 December 2019
Temperature: 10.0°C (50°F)
Dewpoint: 10.0°C (50°F) [RH = 100%]
Pressure (altimeter): 29.88 inches Hg (1012.0 mb)
Winds: from the SSW (210 degrees) at 17 MPH (15 knots; 7.7 m/s)
gusting to 30 MPH (26 knots; 13.4 m/s)
Visibility: 1.55 miles (2.49 km)
Ceiling: 700 feet AGL
Clouds: broken clouds at 700 feet AGL
Weather: -RA BR  (light rain, mist)

Forecast for: EGHH (BOURNEMOUTH AIRP, GB)
Text: TAF EGHH 101105Z 1012/1021 20018KT 9999 SCT008 BKN020
Forecast period: 1200 to 2100 UTC 10 December 2019
Forecast type: FROM: standard forecast or significant change
Winds: from the SSW (200 degrees) at 21 MPH (18 knots; 9.3 m/s)
Visibility: 6 or more miles 10+ km)
Ceiling: 2000 feet AGL
Clouds: scattered clouds at 800 feet AGL
broken clouds at 2000 feet AGL
Weather: no significant weather forecast for this period
Text: TEMPO 1012/1021 20020G30KT 4500 RA BKN008
Forecast period: 1200 to 2100 UTC 10 December 2019
Forecast type: TEMPORARY: The following changes expected for less than half the time period
Winds: from the SSW (200 degrees) at 23 MPH (20 knots; 10.3 m/s)
gusting to 34 MPH (30 knots; 15.4 m/s)
Visibility: 2.80 miles (4.51 km)
Ceiling: 800 feet AGL
Clouds: broken clouds at 800 feet AGL
Weather: RA  (moderate rain)
Text: PROB40
Forecast period: 1400 to 1800 UTC 10 December 2019
Forecast type: TEMPORARY: The following changes expected for less than half the time period
Winds: from the SSW (200 degrees) at 29 MPH (25 knots; 12.9 m/s)
gusting to 46 MPH (40 knots; 20.6 m/s)
Visibility: missing
Ceiling: unknown
Clouds: missing
Weather: no significant weather forecast for this period
Text: TEMPO 1014/1018 20025G40KT
Forecast period: 1800 to 2100 UTC 10 December 2019
Forecast type: TEMPORARY: The following changes expected for less than half the time period
Visibility: missing
Ceiling: 400 feet AGL
Clouds: broken clouds at 400 feet AGL
Weather: +RA  (heavy rain)


Boscombe

ADDS - METARS form results

Output produced by METARs form (1309 UTC 10 December 2019)
found at http://www.aviationweather.gov/metar/data/
 
METAR text: EGDM 101250Z 19020G30KT 3500 -RADZ SCT004 BKN007 OVC012 10/09 Q1010 TEMPO FEW004 BKN006 RMK YLO2 TEMPO YLO1
Conditions at: EGDM (BOSCOMBE DOWN , GB) observed 1250 UTC 10 December 2019
Temperature: 10.0°C (50°F)
Dewpoint: 9.0°C (48°F) [RH = 93%]
Pressure (altimeter): 29.82 inches Hg (1010.0 mb)
Winds: from the S (190 degrees) at 23 MPH (20 knots; 10.3 m/s)
gusting to 34 MPH (30 knots; 15.4 m/s)
Visibility: 2.17 miles (3.49 km)
Ceiling: 700 feet AGL
Clouds: scattered clouds at 400 feet AGL
broken clouds at 700 feet AGL
overcast cloud deck at 1200 feet AGL
Weather: -RA -DZ  (light rain, light drizzle)

METAR text: EGDM 101220Z 19021KT 3200 -RADZ SCT004 BKN007 OVC011 09/09 Q1010 TEMPO 4000 BKN005 YRMK YLO2 TEMPO YLO1
Conditions at: EGDM (BOSCOMBE DOWN , GB) observed 1220 UTC 10 December 2019
Temperature: 9.0°C (48°F)
Dewpoint: 9.0°C (48°F) [RH = 100%]
Pressure (altimeter): 29.82 inches Hg (1010.0 mb)
Winds: from the S (190 degrees) at 24 MPH (21 knots; 10.8 m/s)
Visibility: 1.99 miles (3.20 km)
Ceiling: 700 feet AGL
Clouds: scattered clouds at 400 feet AGL
broken clouds at 700 feet AGL
overcast cloud deck at 1100 feet AGL
Weather: -RA -DZ  (light rain, light drizzle)

Forecast for: AMD
Text: TAF AMD EGDM 101140Z 1012/1019 20025G35KT 8000 -RADZ BKN010
Forecast period: 1200 to 1700 UTC 10 December 2019
Forecast type: FROM: standard forecast or significant change
Winds: from the SSW (200 degrees) at 29 MPH (25 knots; 12.9 m/s)
gusting to 40 MPH (35 knots; 18.0 m/s)
Visibility: 5 miles (8 km)
Ceiling: 1000 feet AGL
Clouds: broken clouds at 1000 feet AGL
Weather: -RA -DZ  (light rain, light drizzle)
Text: TEMPO 1012/1019 3000 RADZ SCT003
Forecast period: 1200 to 1900 UTC 10 December 2019
Forecast type: TEMPORARY: The following changes expected for less than half the time period
Visibility: 1.86 miles (2.99 km)
Ceiling: at least 12,000 feet AGL
Clouds: scattered clouds at 300 feet AGL
Weather: RA DZ  (moderate rain, moderate drizzle)
Text: PROB30
Forecast period: 1600 to 1900 UTC 10 December 2019
Forecast type: TEMPORARY: The following changes expected for less than half the time period
Visibility: 1.24 miles (2.00 km)
Ceiling: unknown
Clouds: missing
Weather: +RA  (heavy rain)
Text: TEMPO 1016/1019 2000 +RA
Forecast period: 1700 to 1900 UTC 10 December 2019
Forecast type: BECOMING: Conditions expected to become as follows by 1900 UTC 10 December 2019
Winds: from the W (270 degrees) at 17 MPH (15 knots; 7.7 m/s)
gusting to 29 MPH (25 knots; 12.9 m/s)
Visibility: 5 miles (8 km)
Ceiling: 1000 feet AGL
Clouds: broken clouds at 1000 feet AGL
Weather: -RA -DZ  (light rain, light drizzle)


Bristol

ADDS - METARS form results

Output produced by METARs form (1309 UTC 10 December 2019)
found at http://www.aviationweather.gov/metar/data/
 
METAR text: EGGD 101250Z 20018G28KT 8000 -DZ BKN004 10/10 Q1007
Conditions at: EGGD (BRISTOL/LULSGATE, GB) observed 1250 UTC 10 December 2019
Temperature: 10.0°C (50°F)
Dewpoint: 10.0°C (50°F) [RH = 100%]
Pressure (altimeter): 29.73 inches Hg (1007.0 mb)
Winds: from the SSW (200 degrees) at 21 MPH (18 knots; 9.3 m/s)
gusting to 32 MPH (28 knots; 14.4 m/s)
Visibility: 5 miles ( 8 km)
Ceiling: 400 feet AGL
Clouds: broken clouds at 400 feet AGL
Weather: -DZ  (light drizzle)

METAR text: EGGD 101220Z AUTO 19017G29KT 9999 -RA BKN004 OVC009 10/09 Q1008
Conditions at: EGGD (BRISTOL/LULSGATE, GB) observed 1220 UTC 10 December 2019
Temperature: 10.0°C (50°F)
Dewpoint: 9.0°C (48°F) [RH = 93%]
Pressure (altimeter): 29.76 inches Hg (1008.0 mb)
Winds: from the S (190 degrees) at 20 MPH (17 knots; 8.7 m/s)
gusting to 33 MPH (29 knots; 14.9 m/s)
Visibility: 6 or more miles (10+ km)
Ceiling: 400 feet AGL
Clouds: broken clouds at 400 feet AGL
overcast cloud deck at 900 feet AGL
Weather: -RA  (light rain)

Forecast for: AMD
Text: TAF AMD EGGD 101155Z 1012/1112 20025G35KT 9999 BKN008
Forecast period: 1200 to 1800 UTC 10 December 2019
Forecast type: FROM: standard forecast or significant change
Winds: from the SSW (200 degrees) at 29 MPH (25 knots; 12.9 m/s)
gusting to 40 MPH (35 knots; 18.0 m/s)
Visibility: 6 or more miles 10+ km)
Ceiling: 800 feet AGL
Clouds: broken clouds at 800 feet AGL
Weather: no significant weather forecast for this period
Text: TEMPO 1012/1018 4000 RA
Forecast period: 1200 to 1800 UTC 10 December 2019
Forecast type: TEMPORARY: The following changes expected for less than half the time period
Visibility: 2.49 miles (4.01 km)
Ceiling: unknown
Clouds: missing
Weather: RA  (moderate rain)
Text: PROB40
Forecast period: 1200 to 1800 UTC 10 December 2019
Forecast type: TEMPORARY: The following changes expected for less than half the time period
Winds: from the SSW (200 degrees) at 34 MPH (30 knots; 15.4 m/s)
gusting to 52 MPH (45 knots; 23.1 m/s)
Visibility: 0.75 miles (1.21 km)
Ceiling: 400 feet AGL
Clouds: broken clouds at 400 feet AGL
Weather: +RA  (heavy rain)
Text: TEMPO 1012/1018 20030G45KT 1200 +RA BKN004
Forecast period: 1800 to 2000 UTC 10 December 2019
Forecast type: BECOMING: Conditions expected to become as follows by 2000 UTC 10 December 2019
Winds: from the W (270 degrees) at 23 MPH (20 knots; 10.3 m/s)
gusting to 34 MPH (30 knots; 15.4 m/s)
Visibility: 6 or more miles 10+ km)
Ceiling: at least 12,000 feet AGL
Clouds: few clouds at 800 feet AGL
scattered clouds at 3000 feet AGL
Weather: no significant weather forecast for this period
Text: BECMG 1018/1020 27020G30KT FEW008 SCT030
Forecast period: 1800 to 2000 UTC 10 December 2019
Forecast type: TEMPORARY: The following changes expected for less than half the time period
Visibility: 1.86 miles (2.99 km)
Ceiling: 800 feet AGL
Clouds: broken clouds at 800 feet AGL
Weather: +RA  (heavy rain)
Text: PROB30
Forecast period: 2000 UTC 10 December 2019 to 0000 UTC 11 December 2019
Forecast type: BECOMING: Conditions expected to become as follows by 2300 UTC 10 December 2019
Winds: from the W (260 degrees) at 12 MPH (10 knots; 5.1 m/s)
Visibility: 6 or more miles 10+ km)
Ceiling: at least 12,000 feet AGL
Clouds: few clouds at 800 feet AGL
scattered clouds at 3000 feet AGL
Weather: no significant weather forecast for this period
Text: TEMPO 1018/1020 3000 +RA BKN008
Forecast period: 0000 to 1200 UTC 11 December 2019
Forecast type: BECOMING: Conditions expected to become as follows by 0300 UTC 11 December 2019
Winds: from the S (180 degrees) at 6 MPH (5 knots; 2.6 m/s)
Visibility: 6 or more miles 10+ km)
Ceiling: at least 12,000 feet AGL
Clouds: few clouds at 800 feet AGL
scattered clouds at 3000 feet AGL
Weather: no significant weather forecast for this period
Text: BECMG 1020/1023 26010KT
Forecast period: 0600 to 1200 UTC 11 December 2019
Forecast type: TEMPORARY: The following changes expected for less than half the time period
Visibility: 4 miles (7 km)
Ceiling: unknown
Clouds: missing
Weather: -SHRA  (light rain showers)






Experience Flights